Latest Coastal Weather Observations for Proserpine

IDQ60701

Issued at 6:02 am EST Thursday 23 May 2024 (issued every 10 minutes, with the page automatically refreshed every 10 minutes)

About coastal observations | Map of coastal stations | Coastal observations for QLD | Marine services | Other Formats
Station Details ID: 033247 Name: PROSERPINE AIRPORT Lat: -20.49 Lon: 148.56 Height: 19.7 m
Data from the previous 72 hours. | See also: Recent months at Proserpine
Date/Time
EST
Wind Sea
Height
m
Swell Vis
km
Cloud Weather Temp
°C
Press
MSL
hPa
Rain since
9am
mm
Dir  Spd
kts
Gust
kts
Height
m
Period
s
Dir
23/06:00am SSW 2 5 - - - - 10 Partly cloudy - 14.0 1018.7 0.0
23/05:30am SSW 5 6 - - - - 10 Partly cloudy - 13.8 1018.3 0.0
23/05:00am SSW 4 4 - - - - 10 - - 14.6 1018.3 0.0
23/04:30am SW 3 4 - - - - 10 - - 14.3 1018.3 0.0
23/04:00am SSW 3 5 - - - - 10 Partly cloudy - 14.3 1018.3 0.0
23/03:30am SSW 6 6 - - - - 10 - - 14.6 1018.2 0.0
23/03:00am SSW 4 5 - - - - 10 - - 14.3 1018.4 0.0
23/02:30am SSW 4 6 - - - - 10 - - 14.5 1018.6 0.0
23/02:00am S 6 7 - - - - 10 - - 14.6 1018.9 0.0
23/01:30am SSW 6 7 - - - - 10 - - 14.7 1019.1 0.0
23/01:00am SSW 6 7 - - - - 10 - - 14.7 1019.1 0.0
23/12:30am SSW 7 8 - - - - 10 - - 14.7 1019.2 0.0
23/12:00am SSW 7 8 - - - - 10 - - 15.0 1019.2 0.0
 
Date/Time
EST
Wind Sea
Height
m
Swell Vis
km
Cloud Weather Temp
°C
Press
MSL
hPa
Rain since
9am
mm
Dir  Spd
kts
Gust
kts
Height
m
Period
s
Dir
22/11:30pm SSW 7 9 - - - - 10 - - 15.1 1019.5 0.0
22/11:00pm SSW 7 8 - - - - 10 - - 15.3 1019.6 0.0
22/10:30pm SSW 5 6 - - - - 10 - - 15.5 1019.8 0.0
22/10:00pm S 6 7 - - - - 10 - - 16.5 1019.8 0.0
22/09:30pm SSW 7 8 - - - - 10 Partly cloudy - 16.7 1020.0 0.0
22/09:00pm SSW 7 9 - - - - 10 Partly cloudy - 17.1 1020.1 0.0
22/08:30pm S 6 7 - - - - 10 - - 17.4 1020.1 0.0
22/08:00pm S 6 8 - - - - 10 - - 18.4 1019.9 0.0
22/07:30pm S 6 7 - - - - 10 - - 18.7 1019.6 0.0
22/07:00pm SE 6 7 - - - - 10 - - 19.3 1019.3 0.0
22/06:30pm SE 8 10 - - - - 10 Partly cloudy - 20.1 1018.9 0.0
22/06:00pm ESE 9 13 - - - - 10 Mostly cloudy - 20.9 1018.6 0.0
22/05:30pm ESE 9 13 - - - - 10 Cloudy - 21.3 1018.2 0.0
22/05:00pm ESE 10 14 - - - - 10 Partly cloudy - 22.4 1017.9 0.0
22/04:30pm ESE 11 17 - - - - 10 - - 22.8 1017.5 0.0
22/04:00pm ESE 13 20 - - - - 10 - - 23.4 1017.2 0.0
22/03:30pm ESE 15 21 - - - - 10 - - 23.4 1017.0 0.0
22/03:00pm ESE 11 18 - - - - 10 - - 24.4 1017.0 0.0
22/02:30pm E 15 21 - - - - 10 - - 24.5 1017.0 0.0
22/02:00pm ESE 12 18 - - - - 10 - - 25.0 1017.3 0.0
22/01:30pm ESE 14 18 - - - - 10 - - 24.6 1017.5 0.0
22/01:00pm ESE 13 19 - - - - 10 - - 25.1 1017.7 0.0
22/12:30pm ESE 13 19 - - - - 10 - - 24.9 1018.1 0.0
22/12:00pm ESE 13 19 - - - - 10 Mostly clear - 25.2 1018.4 0.0
22/11:30am ESE 13 18 - - - - 10 Partly cloudy - 25.3 1019.0 0.0
22/11:00am SE 14 20 - - - - 10 Partly cloudy - 24.8 1019.4 0.0
22/10:30am SE 14 17 - - - - 10 Partly cloudy - 23.4 1019.8 0.0
22/10:00am SE 11 15 - - - - 10 Partly cloudy - 23.3 1020.0 0.0
22/09:30am SE 12 16 - - - - 10 Partly cloudy - 22.4 1020.0 0.0
22/09:00am SSE 9 12 - - - - 10 Partly cloudy - 21.7 1019.9 0.0
22/08:30am SSE 7 9 - - - - 10 Partly cloudy - 19.8 1019.9 0.0
22/08:00am S 6 8 - - - - 10 Partly cloudy - 18.6 1019.5 0.0
22/07:30am SSW 5 7 - - - - 10 Partly cloudy - 16.3 1019.5 0.0
22/07:00am SSW 5 6 - - - - 10 Partly cloudy - 14.9 1019.1 0.0
22/06:30am CALM 0 3 - - - - 10 - - 14.6 1018.7 0.0
22/06:00am SSW 5 6 - - - - 10 - - 14.6 1018.6 0.0
22/05:30am SSW 5 7 - - - - 10 - - 14.9 1018.3 0.0
22/05:00am SSW 5 6 - - - - 10 - - 15.1 1018.1 0.0
22/04:30am SSW 6 6 - - - - 10 - - 15.3 1017.9 0.0
22/04:00am SSW 5 7 - - - - 10 Partly cloudy - 15.8 1017.8 0.0
22/03:30am SSW 6 7 - - - - 10 Partly cloudy - 15.4 1017.7 0.0
22/03:00am SSW 6 8 - - - - 10 Partly cloudy - 15.5 1017.7 0.0
22/02:30am SSW 6 6 - - - - 10 - - 15.2 1017.9 0.0
22/02:00am SSW 6 6 - - - - 10 - - 15.3 1018.2 0.0
22/01:30am SSW 7 8 - - - - 10 Partly cloudy - 15.6 1018.5 0.0
22/01:00am SSW 7 7 - - - - 10 - - 15.5 1018.7 0.0
22/12:30am SSW 6 7 - - - - 10 Partly cloudy - 15.7 1018.9 0.0
22/12:00am SSW 7 8 - - - - 10 - - 16.0 1019.1 0.0
 
Date/Time
EST
Wind Sea
Height
m
Swell Vis
km
Cloud Weather Temp
°C
Press
MSL
hPa
Rain since
9am
mm
Dir  Spd
kts
Gust
kts
Height
m
Period
s
Dir
21/11:30pm SSW 6 7 - - - - 10 Partly cloudy - 16.4 1019.4 0.0
21/11:00pm SSW 6 7 - - - - 10 Partly cloudy - 16.6 1019.7 0.0
21/10:30pm SSW 6 7 - - - - 10 Partly cloudy - 16.4 1019.7 0.0
21/10:00pm SSW 1 4 - - - - 10 - - 15.9 1019.6 0.0
21/09:30pm SSW 6 8 - - - - 10 - - 16.2 1019.6 0.0
21/09:00pm S 1 4 - - - - 10 - - 17.1 1019.7 0.0
21/08:30pm SE 4 5 - - - - 10 - - 17.7 1019.7 0.0
21/08:00pm S 1 3 - - - - 10 - - 17.9 1019.4 0.0
21/07:30pm SE 4 5 - - - - 10 - - 18.2 1019.2 0.0
21/07:00pm SE 3 5 - - - - 10 - - 18.9 1018.8 0.0
21/06:30pm ESE 5 7 - - - - 10 - - 19.4 1018.4 0.0
21/06:00pm ESE 5 6 - - - - 10 Mostly cloudy - 20.0 1018.2 0.0
21/05:30pm ESE 6 8 - - - - 10 Partly cloudy - 21.1 1017.9 0.0
21/05:00pm ESE 8 14 - - - - 10 Partly cloudy - 22.2 1017.8 0.0
21/04:30pm ESE 8 12 - - - - 10 Cloudy - 22.5 1017.5 0.0
21/04:00pm ESE 9 12 - - - - 10 Partly cloudy - 22.8 1017.2 0.0
21/03:30pm ESE 7 11 - - - - 10 Cloudy - 23.0 1017.2 0.0
21/03:00pm ESE 10 13 - - - - 10 Cloudy - 23.2 1016.9 0.0
21/02:30pm ESE 9 12 - - - - 10 Cloudy - 23.0 1016.9 0.0
21/02:00pm ESE 9 13 - - - - 10 Cloudy - 23.3 1017.0 0.0
21/01:30pm ESE 11 16 - - - - 10 Cloudy - 23.4 1017.2 0.0
21/01:00pm ESE 14 19 - - - - 10 Partly cloudy - 24.2 1017.3 0.0
21/12:30pm ESE 13 20 - - - - 10 Partly cloudy - 24.5 1017.8 0.0
21/12:00pm ESE 12 17 - - - - 10 - - 24.5 1018.1 0.0
21/11:30am ESE 12 17 - - - - 10 - - 24.0 1018.4 0.0
21/11:00am ESE 13 19 - - - - 10 - - 24.1 1018.8 0.0
21/10:30am SE 12 18 - - - - 10 - - 23.6 1019.3 0.0
21/10:00am SSE 11 14 - - - - 10 - - 23.1 1019.4 0.0
21/09:30am SSE 9 14 - - - - 10 - - 22.7 1019.4 0.0
21/09:00am S 6 8 - - - - 10 Mostly clear - 19.8 1019.5 0.0
21/08:30am S 5 6 - - - - 10 - - 18.3 1019.4 0.0
21/08:00am SSW 5 6 - - - - 10 - - 16.5 1019.4 0.0
21/07:30am SW 5 7 - - - - 10 - - 13.5 1019.2 0.0
21/07:00am SSW 7 8 - - - - 10 - - 11.1 1018.9 0.0
21/06:30am SSW 7 8 - - - - 10 - - 10.3 1018.7 0.0
21/06:00am SSW 6 7 - - - - 10 - - 10.2 1018.5 0.0
21/05:30am SSW 8 9 - - - - 10 - - 10.5 1018.2 0.0
21/05:00am SSW 6 7 - - - - 10 - - 10.5 1018.1 0.0
21/04:30am ESE 5 6 - - - - 10 - - 10.8 1017.7 0.0
21/04:00am ESE 4 6 - - - - 10 - - 10.9 1017.9 0.0
21/03:30am ESE 6 7 - - - - 10 - - 11.6 1018.0 0.0
21/03:00am ESE 7 7 - - - - 10 Mostly cloudy - 12.2 1018.0 0.0
21/02:30am ESE 7 7 - - - - 10 - - 12.4 1018.3 0.0
21/02:00am ESE 8 8 - - - - 10 - - 12.6 1018.4 0.0
21/01:30am ESE 7 8 - - - - 10 - - 12.8 1018.6 0.0
21/01:00am ESE 6 7 - - - - 10 - - 13.2 1019.1 0.0
21/12:30am ESE 6 7 - - - - 10 - - 13.2 1018.8 0.0
21/12:00am ESE 7 8 - - - - 10 Cloudy - 13.0 1019.0 0.0
 
Date/Time
EST
Wind Sea
Height
m
Swell Vis
km
Cloud Weather Temp
°C
Press
MSL
hPa
Rain since
9am
mm
Dir  Spd
kts
Gust
kts
Height
m
Period
s
Dir
20/11:30pm ESE 6 9 - - - - 10 - - 12.8 1019.3 0.0
20/11:00pm ESE 7 7 - - - - 10 - - 13.0 1019.5 0.0
20/10:30pm ESE 5 7 - - - - 10 - - 13.3 1019.6 0.0
20/10:00pm ESE 5 6 - - - - 10 - - 13.8 1019.7 0.0
20/09:30pm ESE 6 7 - - - - 10 - - 14.3 1019.4 0.0
20/09:00pm ESE 7 8 - - - - 10 - - 14.4 1019.2 0.0
20/08:30pm ESE 6 7 - - - - 10 - - 14.4 1019.4 0.0
20/08:00pm ESE 5 6 - - - - 10 - - 14.8 1019.2 0.0
20/07:30pm ESE 5 7 - - - - 10 - - 15.4 1018.6 0.0
20/07:00pm ESE 6 7 - - - - 10 - - 15.9 1018.3 0.0
20/06:30pm ESE 2 3 - - - - 10 - - 17.8 1017.9 0.0
20/06:00pm ESE 4 5 - - - - 10 - - 18.7 1017.5 0.0
20/05:30pm ESE 6 8 - - - - 10 - - 19.8 1017.2 0.0
20/05:00pm E 7 9 - - - - 10 - - 21.5 1016.9 0.0
20/04:30pm E 7 10 - - - - 10 - - 22.1 1016.7 0.0
20/04:00pm E 10 15 - - - - 10 - - 22.8 1016.4 0.0
20/03:30pm ESE 10 13 - - - - 10 - - 23.4 1016.2 0.0
20/03:00pm ESE 11 15 - - - - 10 - - 23.7 1016.2 0.0
20/02:30pm ESE 11 15 - - - - 10 - - 23.4 1016.2 0.0
20/02:00pm ESE 11 15 - - - - 10 Partly cloudy - 24.1 1016.0 0.0
20/01:30pm ESE 11 16 - - - - 10 - - 23.6 1016.3 0.0
20/01:00pm ESE 9 12 - - - - 10 - - 23.0 1016.8 0.0
20/12:30pm E 10 16 - - - - 10 - - 22.9 1017.1 0.0
20/12:00pm ESE 10 14 - - - - 10 - - 22.2 1017.6 0.0
20/11:30am ESE 11 15 - - - - 10 - - 22.4 1018.0 0.0
20/11:00am ESE 11 15 - - - - 10 - - 22.5 1018.6 0.0
20/10:30am SE 7 9 - - - - 10 - - 21.6 1019.0 0.0
20/10:00am SE 6 9 - - - - 10 - - 19.9 1019.3 0.0
20/09:30am SE 6 9 - - - - 10 Partly cloudy - 18.3 1019.5 0.0
20/09:00am SE 6 7 - - - - 10 Mostly cloudy - 17.2 1019.3 0.0
20/08:30am SSE 4 5 - - - - 10 Partly cloudy - 14.9 1019.0 0.0
20/08:00am CALM 0 0 - - - - 10 Partly cloudy - 13.0 1018.7 0.0
20/07:30am CALM 0 0 - - - - 10 - - 10.9 1018.5 0.0
20/07:00am CALM 0 0 - - - - 10 - - 10.1 1018.2 0.0
20/06:30am CALM 0 0 - - - - 10 Partly cloudy - 10.0 1017.9 0.0

Other formats

Comma delimited format used in spreadsheet applications
http://www.bom.gov.au/fwo/IDQ60701/IDQ60701.94365.axf

JavaScript Object Notation format (JSON) in row-major order
http://www.bom.gov.au/fwo/IDQ60701/IDQ60701.94365.json

Data quality

Most of these data are generated automatically and are frequently updated. Quality checks on data are not normally performed. It is possible for incorrect values to appear. Refer to information at About Latest Weather Observations and please check the disclaimer before using these data.